CWYO2: Chewey Road

                                SHEF ID:       CWYO2     Illinois River at Chewey, OK
STATION TYPE:
Regulating: Stage = 12.00, Flow = 13730

PRECIP STAGE STAGE(2) RIV-FLOW BAT-LOAD
in ft ft cfs volt
Ccp-Rev Ccp-Rev Ccp-Rev Ccp-Rev Ccp-Rev
(America/Chicago)
04/24 00:00 0.00 3.49 3.50 682 12.44
04/24 01:00 0.00 3.50 3.50 688 12.44
04/24 02:00 0.00 3.50 3.49 688 12.44
04/24 03:00 1.09 3.54 3.57 711 12.44
04/24 04:00 1.35 3.78 3.86 862 12.44
04/24 05:00 0.10 4.22 4.20 1183 12.44
04/24 06:00 0.02 4.49 4.46 1393 12.44
04/24 07:00 0.00 4.67 4.63 1537 12.42
04/24 08:00 0.00 4.79 4.76 1634 12.43
04/24 09:00 0.00 4.93 4.90 1749 12.44
04/24 10:00 0.00 5.19 5.15 1976 12.49
04/24 11:00 0.00 5.65 5.62 2418 12.68
04/24 12:00 0.00 5.99 5.94 2778 12.67
04/24 13:00 0.00 6.09 6.04 2889 12.61
04/24 14:00 0.00 6.09 6.05 2889 12.52
04/24 15:00 0.00 6.15 6.11 2957 12.59
04/24 16:00 0.00 6.36 6.31 3202 12.69
04/24 17:00 0.00 6.57 6.51 3457 12.62
04/24 18:00 0.00 6.65 6.60 3557 12.57
04/24 19:00 0.00 6.71 6.64 3634 12.55
04/24 20:00 0.00 6.94 6.90 3934 12.54
04/24 21:00 0.00 7.40 7.33 4577 12.49
04/24 22:00 0.00 7.85 7.77 5258 12.47
04/24 23:00 0.00 8.22 8.11 5859 12.46
Data processed at Sat 25Apr2026 04:29 GMT

NOTICE: If you are parsing this page

Please convert to using our Data API. Starting early 2026 we will be migrating to: https://water.usace.army.mil with modern pages rendered in JavaScript. When this migration completes you will no longer be able to scrape this page! CWMSDataAPI (CDA)

Timeseries IDs (TSIDs)

TSIDs used from left to right in the data table
CHEW.Precip-Inc.Total.1Hour.1Hour.Ccp-Rev
CHEW.Stage.Inst.1Hour.0.Ccp-Rev
CHEW.Stage-Alt.Inst.1Hour.0.Ccp-Rev
CHEW.Flow.Inst.1Hour.0.Ccp-Rev
CHEW.Volt-Battery Load.Inst.1Hour.0.Ccp-Rev

                            

All information presented herein is the property of the government of the United States of America and may be revised or deleted at any time without prior notice. Dissemination of this information without the expressed written consent of the Public Affairs Office, Tulsa District U.S. Army Corps of Engineers is strictly prohibited. These data are gathered electronically and, as presented, have NOT undergone any form of quality control. These data are NOT guaranteed to be valid or correct.